Time;durP1;ratioP1;P1;durP2;ratioP2;P2;SDS_P1;SDS_P2;PMS_P1;PMS_P2;Temp;Humidity;BMP_temperature;BMP_pressure;BME280_temperature;BME280_humidity;BME280_pressure;Samples;Min_cycle;Max_cycle;Signal;HPM_P1;HPM_P2
2021/12/09 00:01:50;;;;;;;70.65;27.20;;;-4.90;99.90;;;;;;5030298;28;20028;-76
2021/12/09 00:04:24;;;;;;;64.60;26.08;;;-4.90;99.90;;;;;;5031667;28;20030;-76
2021/12/09 00:06:50;;;;;;;65.85;25.90;;;-4.90;99.90;;;;;;5030684;28;20033;-76
2021/12/09 00:09:18;;;;;;;74.57;27.70;;;-4.90;99.90;;;;;;5029599;28;20141;-76
2021/12/09 00:11:46;;;;;;;76.47;28.60;;;-4.90;99.90;;;;;;5031473;28;20041;-76
2021/12/09 00:14:21;;;;;;;68.68;28.25;;;-4.90;99.90;;;;;;5031540;28;20022;-76
2021/12/09 00:16:48;;;;;;;57.80;24.98;;;-4.90;99.90;;;;;;5031607;28;20029;-76
2021/12/09 00:19:15;;;;;;;63.35;25.85;;;-4.90;99.90;;;;;;5031502;28;20475;-76
2021/12/09 00:21:40;;;;;;;66.40;29.50;;;-4.90;99.90;;;;;;5030239;28;20108;-76
2021/12/09 00:24:06;;;;;;;66.03;26.65;;;-4.90;99.90;;;;;;5031299;28;20076;-76
2021/12/09 00:26:32;;;;;;;68.40;27.15;;;-4.90;99.90;;;;;;5031382;28;20070;-77
2021/12/09 00:28:57;;;;;;;62.00;26.80;;;-4.90;99.90;;;;;;5031187;28;20502;-76
2021/12/09 00:31:24;;;;;;;68.63;28.58;;;-4.80;99.90;;;;;;5031233;28;20045;-76
2021/12/09 00:33:50;;;;;;;61.00;23.70;;;-4.80;99.90;;;;;;5030012;28;20080;-76
2021/12/09 00:36:26;;;;;;;58.17;24.73;;;-4.80;99.90;;;;;;5030023;28;20510;-76
2021/12/09 00:38:54;;;;;;;68.70;26.15;;;-4.80;99.90;;;;;;5031142;28;20022;-77
2021/12/09 00:41:20;;;;;;;64.43;26.58;;;-4.80;99.90;;;;;;5031174;28;20105;-76
2021/12/09 00:43:46;;;;;;;63.65;23.85;;;-4.90;99.90;;;;;;5031240;28;20082;-77
2021/12/09 00:46:11;;;;;;;53.08;23.65;;;-4.90;99.90;;;;;;5030367;28;20025;-76
2021/12/09 00:48:38;;;;;;;62.50;24.20;;;-4.90;99.90;;;;;;5028881;28;20029;-76
2021/12/09 00:51:05;;;;;;;58.60;24.83;;;-4.90;99.90;;;;;;5029821;28;20422;-76
2021/12/09 00:53:31;;;;;;;68.15;27.65;;;-4.90;99.90;;;;;;5029837;28;20032;-76
2021/12/09 00:55:57;;;;;;;52.38;22.08;;;-4.90;99.90;;;;;;5029805;28;20070;-76
2021/12/09 00:58:23;;;;;;;66.45;23.77;;;-4.90;99.90;;;;;;5029737;28;20297;-76
2021/12/09 01:00:49;;;;;;;68.90;25.90;;;-4.90;99.90;;;;;;5028642;28;20075;-76
2021/12/09 01:03:16;;;;;;;64.32;26.65;;;-4.90;99.90;;;;;;5029663;28;20029;-76
2021/12/09 01:05:44;;;;;;;65.75;26.55;;;-4.90;99.90;;;;;;5030759;28;20060;-76
2021/12/09 01:08:10;;;;;;;53.80;21.83;;;-4.90;99.90;;;;;;5029445;28;20440;-76
2021/12/09 01:10:36;;;;;;;60.28;25.85;;;-4.90;99.90;;;;;;5030592;28;20029;-76
2021/12/09 01:13:03;;;;;;;58.72;23.98;;;-4.90;99.90;;;;;;5029328;28;20518;-76
2021/12/09 01:15:29;;;;;;;70.10;26.08;;;-4.90;99.90;;;;;;5029260;28;20040;-76
2021/12/09 01:17:55;;;;;;;57.90;24.65;;;-4.90;99.90;;;;;;5029446;28;20065;-76
2021/12/09 01:20:25;;;;;;;67.88;26.75;;;-4.90;99.90;;;;;;5030524;28;20081;-76
2021/12/09 01:22:54;;;;;;;71.78;27.95;;;-4.90;99.90;;;;;;5030642;28;20021;-76
2021/12/09 01:25:21;;;;;;;54.03;24.98;;;-4.80;99.90;;;;;;5030524;28;20025;-76
2021/12/09 01:27:48;;;;;;;62.20;25.42;;;-4.80;99.90;;;;;;5030448;28;20021;-76
2021/12/09 01:30:17;;;;;;;64.05;23.67;;;-4.80;99.90;;;;;;5029152;28;20029;-76
2021/12/09 01:32:51;;;;;;;62.78;25.67;;;-4.80;99.90;;;;;;5030338;28;20037;-76
2021/12/09 01:35:28;;;;;;;60.53;25.88;;;-4.80;99.90;;;;;;5030354;28;20097;-76
2021/12/09 01:38:01;;;;;;;54.13;22.33;;;-4.80;99.90;;;;;;5029148;28;20041;-76
2021/12/09 01:40:28;;;;;;;53.13;24.27;;;-4.80;99.90;;;;;;5030359;28;20028;-76
2021/12/09 01:42:55;;;;;;;64.10;24.55;;;-4.80;99.90;;;;;;5030267;28;20025;-76
2021/12/09 01:45:21;;;;;;;72.90;26.88;;;-4.80;99.90;;;;;;5030188;28;20025;-76
2021/12/09 01:47:47;;;;;;;70.88;27.00;;;-4.80;99.90;;;;;;5030149;28;20500;-76
2021/12/09 01:50:14;;;;;;;64.00;26.17;;;-4.80;99.90;;;;;;5028856;28;20390;-76
2021/12/09 01:52:40;;;;;;;65.57;23.35;;;-4.80;99.90;;;;;;5030071;28;20495;-76
2021/12/09 01:55:08;;;;;;;67.18;26.90;;;-4.80;99.90;;;;;;5030053;28;20033;-75
2021/12/09 01:57:34;;;;;;;67.18;25.45;;;-4.80;99.90;;;;;;5029879;28;20026;-76
2021/12/09 02:00:00;;;;;;;68.28;27.17;;;-4.90;99.90;;;;;;5028586;28;20029;-76
2021/12/09 02:02:26;;;;;;;51.08;20.73;;;-4.80;99.90;;;;;;5029962;28;20025;-75
2021/12/09 02:04:52;;;;;;;53.60;25.00;;;-4.80;99.90;;;;;;5028625;28;20162;-76
2021/12/09 02:07:18;;;;;;;50.78;22.27;;;-4.80;99.90;;;;;;5029887;28;20028;-76
2021/12/09 02:09:43;;;;;;;53.50;21.95;;;-4.80;99.90;;;;;;5029877;28;20070;-75
2021/12/09 02:12:11;;;;;;;53.67;22.65;;;-4.80;99.90;;;;;;5029792;28;20037;-75
2021/12/09 02:14:41;;;;;;;59.92;24.50;;;-4.80;99.90;;;;;;5029840;28;20037;-76
2021/12/09 02:17:08;;;;;;;51.60;22.15;;;-4.80;99.90;;;;;;5029794;28;20425;-76
2021/12/09 02:19:33;;;;;;;71.82;26.00;;;-4.80;99.90;;;;;;5029750;28;20063;-75
2021/12/09 02:22:00;;;;;;;65.75;23.90;;;-4.80;99.90;;;;;;5029783;28;20026;-76
2021/12/09 02:24:26;;;;;;;64.85;23.20;;;-4.80;99.90;;;;;;5029642;28;20056;-76
2021/12/09 02:26:52;;;;;;;58.83;25.73;;;-4.80;99.90;;;;;;5028516;28;20045;-75
2021/12/09 02:29:18;;;;;;;61.78;23.52;;;-4.80;99.90;;;;;;5029564;28;20083;-76
2021/12/09 02:31:45;;;;;;;52.42;20.55;;;-4.80;99.90;;;;;;5030382;28;20375;-76
2021/12/09 02:34:11;;;;;;;58.30;22.83;;;-4.80;99.90;;;;;;5031669;28;20070;-76
2021/12/09 02:36:40;;;;;;;50.45;20.58;;;-4.80;99.90;;;;;;5031851;28;20022;-76
2021/12/09 02:39:08;;;;;;;66.57;26.08;;;-4.80;99.90;;;;;;5032010;28;20128;-76
2021/12/09 02:41:35;;;;;;;62.53;24.83;;;-4.80;99.90;;;;;;5033039;28;20018;-76
2021/12/09 02:44:05;;;;;;;59.25;23.58;;;-4.70;99.90;;;;;;5033299;28;20037;-76
2021/12/09 02:46:37;;;;;;;65.20;24.55;;;-4.70;99.90;;;;;;5032945;28;20109;-76
2021/12/09 02:49:14;;;;;;;49.55;20.88;;;-4.70;99.90;;;;;;5031683;28;20386;-76
2021/12/09 02:51:41;;;;;;;65.85;24.77;;;-4.80;99.90;;;;;;5038291;28;20036;-75
2021/12/09 02:54:10;;;;;;;69.53;23.13;;;-4.80;99.90;;;;;;5052564;28;20025;-75
2021/12/09 02:56:37;;;;;;;52.97;19.95;;;-4.80;99.90;;;;;;5052615;28;20035;-75
2021/12/09 02:59:03;;;;;;;61.15;23.48;;;-4.80;99.90;;;;;;5052508;28;20057;-75
2021/12/09 03:01:33;;;;;;;57.78;18.83;;;-4.80;99.90;;;;;;5052462;28;20074;-76
2021/12/09 03:04:01;;;;;;;56.38;21.95;;;-4.70;99.90;;;;;;5051223;28;20021;-76
2021/12/09 03:06:36;;;;;;;43.42;19.67;;;-4.70;99.90;;;;;;5052063;28;20073;-76
2021/12/09 03:09:07;;;;;;;54.88;21.77;;;-4.70;99.90;;;;;;5052355;28;20037;-76
2021/12/09 03:11:33;;;;;;;50.22;19.50;;;-4.70;99.90;;;;;;5052446;28;20084;-76
2021/12/09 03:13:59;;;;;;;55.15;23.15;;;-4.70;99.90;;;;;;5051774;28;20056;-75
2021/12/09 03:16:25;;;;;;;53.72;24.27;;;-4.70;99.90;;;;;;5050641;28;20029;-76
2021/12/09 03:18:56;;;;;;;59.92;23.02;;;-4.70;99.90;;;;;;5051434;28;20036;-77
2021/12/09 03:21:26;;;;;;;68.18;24.17;;;-4.70;99.90;;;;;;5052289;28;20010;-77
2021/12/09 03:23:52;;;;;;;69.78;27.38;;;-4.60;99.90;;;;;;5052248;28;20025;-77
2021/12/09 03:26:25;;;;;;;70.47;25.13;;;-4.60;99.90;;;;;;5051570;28;20020;-76
2021/12/09 03:28:52;;;;;;;73.68;27.13;;;-4.70;99.90;;;;;;5050110;28;20025;-76
2021/12/09 03:31:18;;;;;;;77.18;30.20;;;-4.60;99.90;;;;;;5049998;28;20124;-76
2021/12/09 03:33:44;;;;;;;69.80;28.23;;;-4.60;99.90;;;;;;5049925;28;20104;-77
2021/12/09 03:36:10;;;;;;;66.05;27.75;;;-4.60;99.90;;;;;;5049949;28;20492;-76
2021/12/09 03:38:36;;;;;;;65.28;24.98;;;-4.70;99.90;;;;;;5049889;28;20508;-77
2021/12/09 03:41:02;;;;;;;69.78;28.58;;;-4.60;99.90;;;;;;5050097;28;20167;-76
2021/12/09 03:43:27;;;;;;;74.20;27.08;;;-4.60;99.90;;;;;;5050719;28;20033;-77
2021/12/09 03:45:55;;;;;;;64.88;25.95;;;-4.60;99.90;;;;;;5050696;28;20021;-77
2021/12/09 03:48:22;;;;;;;63.53;25.00;;;-4.60;99.90;;;;;;5051985;28;20018;-76
2021/12/09 03:50:48;;;;;;;73.32;27.88;;;-4.60;99.90;;;;;;5051750;28;20033;-76
2021/12/09 03:53:14;;;;;;;75.20;27.77;;;-4.60;99.90;;;;;;5051837;28;20081;-77
2021/12/09 03:55:40;;;;;;;58.35;24.08;;;-4.60;99.90;;;;;;5051756;28;20497;-76
2021/12/09 03:58:07;;;;;;;65.35;24.90;;;-4.60;99.90;;;;;;5051713;28;20053;-76
2021/12/09 04:00:33;;;;;;;72.38;25.17;;;-4.60;99.90;;;;;;5050452;28;20108;-76
2021/12/09 04:02:58;;;;;;;58.95;23.67;;;-4.50;99.90;;;;;;5051697;28;20536;-76
2021/12/09 04:05:24;;;;;;;57.28;21.23;;;-4.50;99.90;;;;;;5051556;28;20029;-76
2021/12/09 04:07:51;;;;;;;55.50;24.42;;;-4.50;99.90;;;;;;5051623;28;20100;-76
2021/12/09 04:10:17;;;;;;;51.50;22.13;;;-4.50;99.90;;;;;;5050265;28;20025;-76
2021/12/09 04:12:43;;;;;;;63.75;27.23;;;-4.50;99.90;;;;;;5051401;28;20060;-76
2021/12/09 04:15:09;;;;;;;66.25;23.85;;;-4.50;99.90;;;;;;5050157;28;20025;-76
2021/12/09 04:17:35;;;;;;;67.30;28.00;;;-4.50;99.90;;;;;;5050160;28;20029;-76
2021/12/09 04:20:02;;;;;;;67.50;25.38;;;-4.50;99.90;;;;;;5051352;28;20021;-76
2021/12/09 04:22:28;;;;;;;53.25;25.15;;;-4.50;99.90;;;;;;5050083;28;20033;-76
2021/12/09 04:24:54;;;;;;;70.18;28.73;;;-4.50;99.90;;;;;;5051300;28;20021;-77
2021/12/09 04:27:20;;;;;;;58.08;22.42;;;-4.50;99.90;;;;;;5051303;28;20531;-76
2021/12/09 04:29:46;;;;;;;67.82;26.00;;;-4.60;99.90;;;;;;5051204;28;20132;-76
2021/12/09 04:32:11;;;;;;;67.03;22.27;;;-4.60;99.90;;;;;;5051192;28;20036;-76
2021/12/09 04:34:37;;;;;;;52.00;22.52;;;-4.50;99.90;;;;;;5051142;28;20053;-76
2021/12/09 04:37:03;;;;;;;58.78;24.05;;;-4.50;99.90;;;;;;5049908;28;20029;-76
2021/12/09 04:39:29;;;;;;;54.72;21.67;;;-4.50;99.90;;;;;;5049787;28;20017;-76
2021/12/09 04:41:55;;;;;;;49.55;20.80;;;-4.50;99.90;;;;;;5051078;28;20028;-76
2021/12/09 04:44:22;;;;;;;60.38;23.15;;;-4.50;99.90;;;;;;5050905;28;20505;-76
2021/12/09 04:46:49;;;;;;;51.15;23.05;;;-4.50;99.90;;;;;;5050988;28;20017;-76
2021/12/09 04:49:15;;;;;;;53.25;21.30;;;-4.50;99.90;;;;;;5050954;28;20025;-76
2021/12/09 04:51:40;;;;;;;51.05;22.70;;;-4.50;99.90;;;;;;5050828;28;20041;-76
2021/12/09 04:54:06;;;;;;;54.70;22.95;;;-4.50;99.90;;;;;;5050528;28;20029;-76
2021/12/09 04:56:33;;;;;;;50.50;20.42;;;-4.40;99.90;;;;;;5049541;28;20013;-76
2021/12/09 04:59:00;;;;;;;56.83;22.25;;;-4.40;99.90;;;;;;5050792;28;20036;-76
2021/12/09 05:01:25;;;;;;;59.45;21.75;;;-4.40;99.90;;;;;;5050694;28;20032;-76
2021/12/09 05:03:51;;;;;;;55.22;20.33;;;-4.40;99.90;;;;;;5050711;28;20029;-76
2021/12/09 05:06:18;;;;;;;60.88;24.20;;;-4.40;99.90;;;;;;5049461;28;20078;-76
2021/12/09 05:08:47;;;;;;;53.00;22.77;;;-4.40;99.90;;;;;;5049331;28;20031;-76
2021/12/09 05:11:28;;;;;;;58.45;22.60;;;-4.40;99.90;;;;;;5050536;28;20029;-76
2021/12/09 05:13:54;;;;;;;50.45;22.13;;;-4.40;99.90;;;;;;5049309;28;20025;-76
2021/12/09 05:16:20;;;;;;;56.72;22.25;;;-4.40;99.90;;;;;;5050560;28;20069;-76
2021/12/09 05:18:45;;;;;;;56.33;22.00;;;-4.40;99.90;;;;;;5049166;28;20024;-76
2021/12/09 05:21:12;;;;;;;55.60;22.02;;;-4.40;99.90;;;;;;5050503;28;20026;-76
2021/12/09 05:23:39;;;;;;;49.50;22.42;;;-4.40;99.90;;;;;;5050382;28;20066;-76
2021/12/09 05:26:06;;;;;;;54.35;23.52;;;-4.40;99.90;;;;;;5050447;28;20048;-76
2021/12/09 05:28:35;;;;;;;56.33;23.35;;;-4.40;99.90;;;;;;5050346;28;20025;-76
2021/12/09 05:33:50;;;;;;;44.45;19.05;;;-4.40;99.90;;;;;;5050552;28;20077;-76
2021/12/09 05:36:17;;;;;;;56.05;23.65;;;-4.40;99.90;;;;;;5050251;28;20591;-76
2021/12/09 05:38:42;;;;;;;63.47;23.00;;;-4.40;99.90;;;;;;5049970;28;20398;-76
2021/12/09 05:41:09;;;;;;;56.78;24.98;;;-4.40;99.90;;;;;;5050181;28;20021;-76
2021/12/09 05:43:36;;;;;;;60.15;22.52;;;-4.40;99.90;;;;;;5050024;28;20493;-76
2021/12/09 05:46:02;;;;;;;53.75;20.98;;;-4.40;99.90;;;;;;5050162;28;20082;-76
2021/12/09 05:48:29;;;;;;;61.35;25.33;;;-4.40;99.90;;;;;;5048735;27;20029;-76
2021/12/09 05:50:55;;;;;;;52.58;23.52;;;-4.40;99.90;;;;;;5048715;28;20033;-76
2021/12/09 05:53:20;;;;;;;61.28;24.23;;;-4.40;99.90;;;;;;5049995;28;20497;-76
2021/12/09 05:55:47;;;;;;;61.08;24.00;;;-4.40;99.90;;;;;;5049923;28;20025;-76
2021/12/09 05:58:16;;;;;;;59.63;24.42;;;-4.40;99.90;;;;;;5048685;28;20029;-76
2021/12/09 06:00:42;;;;;;;55.40;21.95;;;-4.40;99.90;;;;;;5049842;28;20436;-75
2021/12/09 06:03:08;;;;;;;56.28;23.05;;;-4.40;99.90;;;;;;5049901;28;20021;-76
2021/12/09 06:05:34;;;;;;;57.17;24.35;;;-4.30;99.90;;;;;;5049677;28;20523;-76
2021/12/09 06:08:00;;;;;;;48.22;20.13;;;-4.30;99.90;;;;;;5049201;28;20412;-76
2021/12/09 06:10:26;;;;;;;53.40;24.65;;;-4.30;99.90;;;;;;5049642;28;20104;-76
2021/12/09 06:12:51;;;;;;;48.85;24.90;;;-4.30;99.90;;;;;;5048423;27;20032;-76
2021/12/09 06:15:17;;;;;;;54.80;23.48;;;-4.30;99.90;;;;;;5049714;28;20025;-76
2021/12/09 06:17:43;;;;;;;50.20;21.90;;;-4.30;99.90;;;;;;5048469;27;20017;-76
2021/12/09 06:20:09;;;;;;;60.67;24.42;;;-4.30;99.90;;;;;;5049597;28;20052;-76
2021/12/09 06:22:34;;;;;;;56.40;24.90;;;-4.20;99.90;;;;;;5048412;28;20393;-76
2021/12/09 06:25:00;;;;;;;54.90;24.02;;;-4.20;99.90;;;;;;5049580;28;20018;-76
2021/12/09 06:27:26;;;;;;;49.63;22.95;;;-4.20;99.90;;;;;;5049556;28;20025;-76
2021/12/09 06:29:51;;;;;;;56.22;21.67;;;-4.20;99.90;;;;;;5049496;28;20561;-76
2021/12/09 06:32:17;;;;;;;46.75;21.85;;;-4.20;99.90;;;;;;5049482;28;20021;-76
2021/12/09 06:34:43;;;;;;;54.38;24.67;;;-4.20;99.90;;;;;;5077923;27;20022;-76
2021/12/09 06:37:08;;;;;;;60.92;25.27;;;-4.20;99.90;;;;;;5086366;27;20033;-76
2021/12/09 06:39:34;;;;;;;54.75;23.42;;;-4.20;99.90;;;;;;5047157;28;20164;-76
2021/12/09 06:42:00;;;;;;;54.50;22.85;;;-4.20;99.90;;;;;;5045291;27;20028;-76
2021/12/09 06:44:26;;;;;;;69.88;26.33;;;-4.20;99.90;;;;;;5028412;28;20520;-76
2021/12/09 06:46:55;;;;;;;57.75;23.70;;;-4.20;99.90;;;;;;5027776;28;20025;-76
2021/12/09 06:49:21;;;;;;;52.92;23.20;;;-4.10;99.90;;;;;;5028426;28;20041;-76
2021/12/09 06:51:47;;;;;;;56.55;24.55;;;-4.20;99.90;;;;;;5028742;28;20479;-76
2021/12/09 06:54:12;;;;;;;49.15;21.50;;;-4.10;99.90;;;;;;5028857;28;20101;-75
2021/12/09 06:56:38;;;;;;;57.30;25.35;;;-4.10;99.90;;;;;;5041605;27;20064;-75
2021/12/09 06:59:04;;;;;;;49.17;21.35;;;-4.10;99.90;;;;;;5048577;27;20092;-75
2021/12/09 07:01:29;;;;;;;48.83;22.17;;;-4.10;99.90;;;;;;5047385;27;20041;-77
2021/12/09 07:03:55;;;;;;;47.95;20.20;;;-4.10;99.90;;;;;;5047905;27;20021;-76
2021/12/09 07:06:21;;;;;;;45.22;20.45;;;-4.10;99.90;;;;;;5047339;27;20041;-75
2021/12/09 07:08:49;;;;;;;42.42;18.13;;;-4.10;99.90;;;;;;5048290;27;20481;-75
2021/12/09 07:11:18;;;;;;;51.13;20.65;;;-4.00;99.90;;;;;;5048507;27;20040;-75
2021/12/09 07:13:44;;;;;;;45.47;19.45;;;-4.00;99.90;;;;;;5047811;27;20108;-76
2021/12/09 07:16:10;;;;;;;47.15;20.27;;;-4.00;99.90;;;;;;5046311;27;20494;-75
2021/12/09 07:18:36;;;;;;;56.80;23.75;;;-4.00;99.90;;;;;;5041884;28;20032;-75
2021/12/09 07:21:02;;;;;;;50.20;20.52;;;-4.00;99.90;;;;;;5050701;28;20558;-76
2021/12/09 07:23:28;;;;;;;54.60;22.52;;;-3.90;99.90;;;;;;5050493;28;20028;-75
2021/12/09 07:25:53;;;;;;;46.92;20.90;;;-3.90;99.90;;;;;;5050130;28;20041;-74
2021/12/09 07:28:19;;;;;;;47.85;20.33;;;-3.90;99.90;;;;;;5051110;28;20021;-75
2021/12/09 07:30:45;;;;;;;44.47;21.38;;;-3.80;99.90;;;;;;5052984;27;20471;-75
2021/12/09 07:33:11;;;;;;;54.67;24.05;;;-3.80;99.90;;;;;;5032339;28;20030;-75
2021/12/09 07:35:37;;;;;;;47.63;21.40;;;-3.70;99.90;;;;;;5034595;28;20036;-75
2021/12/09 07:38:04;;;;;;;56.92;23.73;;;-3.80;99.90;;;;;;5121038;27;20035;-75
2021/12/09 07:40:31;;;;;;;45.80;20.02;;;-3.70;99.90;;;;;;5157011;27;20030;-75
2021/12/09 07:42:57;;;;;;;49.97;20.38;;;-3.70;99.90;;;;;;5068197;27;20032;-75
2021/12/09 07:45:24;;;;;;;53.65;19.85;;;-3.70;99.90;;;;;;5051754;28;20028;-74
2021/12/09 07:47:50;;;;;;;44.63;20.17;;;-3.70;99.90;;;;;;5051315;28;20025;-75
2021/12/09 07:50:21;;;;;;;56.17;24.80;;;-3.60;99.90;;;;;;5050438;27;20502;-75
2021/12/09 07:52:50;;;;;;;64.43;25.48;;;-3.60;99.90;;;;;;5051725;28;20040;-75
2021/12/09 07:55:17;;;;;;;54.03;26.10;;;-3.60;99.90;;;;;;5051811;28;20033;-75
2021/12/09 07:57:43;;;;;;;56.83;23.70;;;-3.60;99.90;;;;;;5051825;28;20479;-76
2021/12/09 08:00:13;;;;;;;62.25;26.40;;;-3.50;99.90;;;;;;5079929;27;20017;-75
2021/12/09 08:02:40;;;;;;;52.22;25.63;;;-3.50;99.90;;;;;;5042171;28;20013;-75
2021/12/09 08:05:07;;;;;;;57.13;23.27;;;-3.50;99.90;;;;;;5041121;28;20014;-75
2021/12/09 08:07:32;;;;;;;56.35;22.88;;;-3.50;99.90;;;;;;5040341;28;20057;-75
2021/12/09 08:09:58;;;;;;;64.45;26.95;;;-3.40;99.90;;;;;;5040783;28;20048;-75
2021/12/09 08:12:24;;;;;;;61.33;25.88;;;-3.40;99.90;;;;;;5040603;28;20030;-75
2021/12/09 08:14:49;;;;;;;44.72;23.85;;;-3.40;99.90;;;;;;5059679;27;20025;-75
2021/12/09 08:20:06;;;;;;;57.75;27.40;;;-3.40;99.90;;;;;;5100375;27;20024;-76
2021/12/09 08:22:32;;;;;;;59.40;22.98;;;-3.30;99.90;;;;;;5097867;27;20104;-76
2021/12/09 08:24:59;;;;;;;55.80;26.38;;;-3.40;99.90;;;;;;5106214;27;20030;-76
2021/12/09 08:27:25;;;;;;;63.25;25.58;;;-3.40;99.90;;;;;;5104069;27;20013;-75
2021/12/09 08:29:51;;;;;;;52.28;26.92;;;-3.30;99.90;;;;;;5097430;27;20468;-75
2021/12/09 08:32:17;;;;;;;60.72;25.70;;;-3.30;99.90;;;;;;5095363;27;20036;-75
2021/12/09 08:34:42;;;;;;;61.35;26.10;;;-3.30;99.90;;;;;;5075542;27;20415;-75
2021/12/09 08:37:08;;;;;;;60.05;28.13;;;-3.30;99.90;;;;;;5049810;27;20028;-76
2021/12/09 08:39:34;;;;;;;64.75;27.58;;;-3.20;99.90;;;;;;5051105;28;20036;-75
2021/12/09 08:41:59;;;;;;;53.88;25.98;;;-3.20;99.90;;;;;;5049328;28;20017;-75
2021/12/09 08:44:25;;;;;;;57.80;25.60;;;-3.20;99.90;;;;;;5050325;28;20029;-75
2021/12/09 08:46:51;;;;;;;66.22;27.30;;;-3.20;99.90;;;;;;5049785;28;20017;-76
2021/12/09 08:49:17;;;;;;;53.65;24.48;;;-3.20;99.90;;;;;;5058452;27;20659;-75
2021/12/09 08:51:43;;;;;;;70.50;28.90;;;-3.20;99.90;;;;;;5052421;27;20115;-75
2021/12/09 08:54:09;;;;;;;56.13;24.35;;;-3.20;99.90;;;;;;5059666;27;20120;-75
2021/12/09 08:56:37;;;;;;;57.60;25.55;;;-3.20;99.90;;;;;;5074375;27;20128;-75
2021/12/09 08:59:05;;;;;;;60.28;24.23;;;-3.10;99.90;;;;;;5053671;27;20032;-75
2021/12/09 09:01:32;;;;;;;52.97;24.88;;;-3.20;99.90;;;;;;5067785;27;20026;-75
2021/12/09 09:03:58;;;;;;;58.35;25.55;;;-3.10;99.90;;;;;;5054304;27;20049;-75
2021/12/09 09:06:24;;;;;;;61.50;24.58;;;-3.10;99.90;;;;;;5082376;27;20058;-75
2021/12/09 09:08:56;;;;;;;43.83;19.38;;;-3.10;99.90;;;;;;5106513;27;20038;-76
2021/12/09 09:11:22;;;;;;;50.72;24.58;;;-3.10;99.90;;;;;;5102062;27;20116;-75
2021/12/09 09:13:47;;;;;;;51.20;23.38;;;-3.10;99.90;;;;;;5124172;27;20102;-75
2021/12/09 09:16:13;;;;;;;63.22;24.65;;;-3.10;99.90;;;;;;5081584;27;20026;-75
2021/12/09 09:18:39;;;;;;;50.13;26.52;;;-3.10;99.90;;;;;;5062354;27;20027;-75
2021/12/09 09:21:05;;;;;;;43.58;21.52;;;-3.10;99.90;;;;;;5049367;28;20053;-75
2021/12/09 09:23:31;;;;;;;66.40;26.73;;;-3.10;99.90;;;;;;5118042;27;20053;-75
2021/12/09 09:25:56;;;;;;;48.13;20.73;;;-3.10;99.90;;;;;;5049653;28;20044;-75
2021/12/09 09:28:22;;;;;;;62.20;25.58;;;-3.00;99.90;;;;;;5049573;28;20482;-75
2021/12/09 09:30:53;;;;;;;68.45;27.85;;;-3.00;99.90;;;;;;5049555;28;20439;-75
2021/12/09 09:33:22;;;;;;;55.97;24.02;;;-2.90;99.90;;;;;;5049465;28;20028;-75
2021/12/09 09:35:48;;;;;;;49.08;23.42;;;-2.90;99.90;;;;;;5052883;27;20031;-76
2021/12/09 09:38:15;;;;;;;63.45;28.95;;;-2.90;99.90;;;;;;5048990;28;20021;-76
2021/12/09 09:40:47;;;;;;;66.18;28.20;;;-2.90;99.90;;;;;;5048840;28;20025;-75
2021/12/09 09:43:26;;;;;;;70.95;30.92;;;-2.90;99.90;;;;;;5048509;28;20029;-74
2021/12/09 09:45:53;;;;;;;61.28;26.73;;;-2.90;99.90;;;;;;5050016;28;20112;-74
2021/12/09 09:48:19;;;;;;;54.50;23.70;;;-2.90;99.90;;;;;;5092390;27;20023;-75
2021/12/09 09:50:45;;;;;;;63.63;27.13;;;-2.90;99.90;;;;;;5097099;27;20025;-74
2021/12/09 09:53:11;;;;;;;55.00;23.95;;;-2.90;99.90;;;;;;5099294;27;20015;-75
2021/12/09 09:55:37;;;;;;;63.80;28.77;;;-2.90;99.90;;;;;;5072503;27;20398;-75
2021/12/09 09:58:04;;;;;;;73.70;28.27;;;-2.90;99.90;;;;;;5132106;27;20049;-75
2021/12/09 10:00:29;;;;;;;61.38;25.27;;;-2.90;99.90;;;;;;5152645;27;20492;-75
2021/12/09 10:02:55;;;;;;;66.55;29.17;;;-2.90;99.90;;;;;;5153170;27;20066;-75
2021/12/09 10:05:28;;;;;;;62.20;25.95;;;-2.90;99.90;;;;;;5153051;27;20376;-75
2021/12/09 10:07:55;;;;;;;52.97;25.23;;;-3.00;99.90;;;;;;5153296;27;20057;-74
2021/12/09 10:10:23;;;;;;;68.72;29.48;;;-3.00;99.90;;;;;;5151054;27;20026;-75
2021/12/09 10:12:59;;;;;;;61.85;27.05;;;-3.00;99.90;;;;;;5151057;27;20026;-75
2021/12/09 10:15:45;;;;;;;65.85;29.33;;;-3.00;99.90;;;;;;5152322;27;20397;-75
2021/12/09 10:18:12;;;;;;;66.60;27.05;;;-2.90;99.90;;;;;;5151119;27;20483;-75
2021/12/09 10:20:46;;;;;;;62.50;26.42;;;-2.80;99.90;;;;;;5151088;27;20011;-75
2021/12/09 10:23:28;;;;;;;66.22;30.05;;;-2.70;99.90;;;;;;5153290;27;20101;-75
2021/12/09 10:26:28;;;;;;;73.25;30.08;;;-2.70;99.90;;;;;;5154471;27;20468;-75
2021/12/09 10:29:24;;;;;;;60.67;27.60;;;-2.60;99.90;;;;;;5154444;27;20023;-75
2021/12/09 10:32:00;;;;;;;61.38;27.42;;;-2.60;99.90;;;;;;5154430;27;20037;-75
2021/12/09 10:34:40;;;;;;;64.50;27.27;;;-2.60;99.90;;;;;;5154202;27;20087;-75
2021/12/09 10:37:20;;;;;;;64.63;27.70;;;-2.50;99.90;;;;;;5154396;27;20051;-75
2021/12/09 10:39:55;;;;;;;61.35;26.75;;;-2.50;99.90;;;;;;5154113;27;20029;-75
2021/12/09 10:42:36;;;;;;;54.50;26.40;;;-2.40;99.90;;;;;;5152848;27;20022;-75
2021/12/09 10:45:30;;;;;;;60.05;24.15;;;-2.40;99.90;;;;;;5152349;27;20117;-75
2021/12/09 10:48:02;;;;;;;47.10;22.58;;;-2.40;99.90;;;;;;5152967;27;20398;-75
2021/12/09 10:50:47;;;;;;;56.15;25.85;;;-2.30;99.90;;;;;;5154227;27;20029;-75
2021/12/09 10:55:58;;;;;;;59.13;24.20;;;-2.30;99.90;;;;;;5158486;27;20498;-75
2021/12/09 10:58:30;;;;;;;59.63;25.02;;;-2.30;99.90;;;;;;5158159;27;20027;-75
2021/12/09 11:00:57;;;;;;;56.35;27.75;;;-2.40;99.90;;;;;;5155793;27;20103;-75
2021/12/09 11:03:24;;;;;;;62.70;27.35;;;-2.40;99.90;;;;;;5155809;27;20315;-75
2021/12/09 11:06:08;;;;;;;60.83;27.05;;;-2.40;99.90;;;;;;5155770;27;20080;-75
2021/12/09 11:08:47;;;;;;;48.45;21.77;;;-2.50;99.90;;;;;;5155869;27;20409;-75
2021/12/09 11:11:33;;;;;;;33.97;18.00;;;-2.50;99.90;;;;;;5155619;27;20058;-75
2021/12/09 11:14:03;;;;;;;54.00;24.00;;;-2.50;99.90;;;;;;5155685;27;20022;-74
2021/12/09 11:16:32;;;;;;;48.38;21.42;;;-2.50;99.90;;;;;;5156631;27;20137;-75
2021/12/09 11:19:16;;;;;;;57.20;27.17;;;-2.50;99.90;;;;;;5156373;27;20071;-77
2021/12/09 11:21:59;;;;;;;51.22;25.15;;;-2.40;99.90;;;;;;5156379;27;20026;-77
2021/12/09 11:24:29;;;;;;;57.17;23.35;;;-2.40;99.90;;;;;;5156266;27;20022;-76
2021/12/09 11:26:58;;;;;;;52.58;26.13;;;-2.40;99.90;;;;;;5157574;27;20476;-77
2021/12/09 11:29:39;;;;;;;53.90;23.17;;;-2.40;99.90;;;;;;5156014;27;20022;-77
2021/12/09 11:34:37;;;;;;;42.75;20.15;;;-2.40;99.90;;;;;;5157698;27;20118;-77
2021/12/09 11:37:21;;;;;;;65.05;27.02;;;-2.40;99.90;;;;;;5155997;27;20042;-77
2021/12/09 11:39:48;;;;;;;61.63;29.30;;;-2.50;99.90;;;;;;5059970;27;20032;-77
2021/12/09 11:42:25;;;;;;;66.75;31.27;;;-2.40;99.90;;;;;;5052034;28;20100;-77
2021/12/09 11:44:51;;;;;;;71.10;29.88;;;-2.40;99.90;;;;;;5051143;28;20064;-77
2021/12/09 11:47:16;;;;;;;63.10;28.52;;;-2.40;99.90;;;;;;5051989;28;20049;-77
2021/12/09 11:49:43;;;;;;;55.30;29.25;;;-2.40;99.90;;;;;;5050588;27;20036;-77
2021/12/09 11:52:11;;;;;;;63.70;25.58;;;-2.40;99.90;;;;;;5051842;28;20112;-77
2021/12/09 11:54:37;;;;;;;68.45;29.23;;;-2.40;99.90;;;;;;5050531;28;20367;-77
2021/12/09 12:06:42;;;;;;;56.33;25.83;;;-2.40;99.90;;;;;;5044669;28;20029;-77
2021/12/09 12:12:19;;;;;;;55.05;25.95;;;-2.30;99.90;;;;;;5051683;28;20141;-77
2021/12/09 12:14:48;;;;;;;55.42;24.95;;;-2.30;99.90;;;;;;5050000;27;20388;-77
2021/12/09 12:17:25;;;;;;;58.30;25.38;;;-2.30;99.90;;;;;;5050268;28;20416;-77
2021/12/09 12:22:50;;;;;;;60.75;23.52;;;-2.30;99.90;;;;;;5051718;28;20074;-77
2021/12/09 12:25:44;;;;;;;56.28;25.35;;;-2.30;99.90;;;;;;5050390;28;20109;-77
2021/12/09 12:28:25;;;;;;;56.53;25.70;;;-2.30;99.90;;;;;;5050413;28;20029;-77
2021/12/09 12:36:19;;;;;;;58.13;25.70;;;-2.30;99.90;;;;;;5051424;28;20043;-77
2021/12/09 12:39:02;;;;;;;59.50;25.42;;;-2.30;99.90;;;;;;5050971;27;20028;-77
2021/12/09 12:41:28;;;;;;;56.88;26.27;;;-2.30;99.90;;;;;;5050731;28;20031;-77
2021/12/09 12:44:04;;;;;;;56.80;26.67;;;-2.20;99.90;;;;;;5049717;28;20029;-77
2021/12/09 12:46:49;;;;;;;52.40;25.63;;;-2.20;99.90;;;;;;5048250;27;20028;-77
2021/12/09 12:49:31;;;;;;;52.72;25.70;;;-2.20;99.90;;;;;;5049412;28;20029;-77
2021/12/09 12:52:10;;;;;;;53.88;26.23;;;-2.10;99.90;;;;;;5049801;28;20036;-77
2021/12/09 12:54:52;;;;;;;54.33;25.35;;;-2.10;99.90;;;;;;5050912;28;20025;-77
2021/12/09 12:57:34;;;;;;;59.90;25.50;;;-2.10;99.90;;;;;;5049698;28;20377;-77
2021/12/09 13:00:04;;;;;;;57.30;28.35;;;-2.10;99.90;;;;;;5049568;28;20586;-77
2021/12/09 13:05:48;;;;;;;53.08;26.10;;;-2.20;99.90;;;;;;5051028;28;20421;-77
2021/12/09 13:10:50;;;;;;;58.80;24.35;;;-2.10;99.90;;;;;;5050693;28;20169;-77
2021/12/09 13:13:45;;;;;;;51.03;25.15;;;-2.10;99.90;;;;;;5050610;28;20118;-77